Heber, UT

12:03 PM MDT on June 25, 2017 (GMT -0600)
Heber

Weather History for K36U - July, 2014

Change the Weather History Date:

Thursday, July 3, 2014

  Actual Average (KPVU) Record (KPVU)
Temperature  
Mean Temperature 72 °F -  
Max Temperature 95 °F 87 °F 98 °F (1989)
Min Temperature 50 °F 55 °F 46 °F (1997)
Cooling Degree Days 8    
Growing Degree Days 22 (Base 50)    
Moisture  
Dew Point 40 °F    
Average Humidity 40    
Maximum Humidity 76    
Minimum Humidity 11    
Precipitation  
Precipitation 0.00 in - - ()
Sea Level Pressure  
Sea Level Pressure 30.15 in    
Wind  
Wind Speed 4 mph (SW)    
Max Wind Speed 24 mph    
Max Gust Speed 36 mph    
Visibility 10 miles    
Events Thunderstorm    
Averages and records for this station are not official NWS values.
T = Trace of Precipitation, MM = Missing Value Source: NWS Daily Summary

Daily Weather History Graph

Daily Weather History Graph

Search for Another Location

Airport or City:

Trip Planner

Search our weather history database for the weather conditions in past years. The results will help you decide how hot, cold, wet, or windy it might be!

Date:

Astronomy

Jul. 03, 2014 Rise Set
Actual Time 6:00 AM MDT 8:59 PM MDT
Civil Twilight 5:27 AM MDT 9:32 PM MDT
Nautical Twilight 4:45 AM MDT 10:14 PM MDT
Astronomical Twilight 3:56 AM MDT 11:03 PM MDT
Moon 12:04 PM MDT (7/3) No Moon Set
Length of Visible Light 16h 05m
Length of Day
14h 59m
Waxing Crescent, 33% of the Moon is Illuminated
Jul 3
Waxing Crescent
Jul 5
First Quarter
Jul 12
Full
Jul 18
Last Quarter
Jul 26
New

Hourly Weather History & Observations

Time (MDT) Temp. Dew Point Humidity Pressure Visibility Wind Dir Wind Speed Gust Speed Precip Events Conditions
12:15 AM 68.0 °F 44.6 °F 43% 30.13 in 10.0 mi East 5.8 mph - N/A   Clear
12:35 AM 62.6 °F 44.6 °F 52% 30.14 in 10.0 mi ESE 3.5 mph - N/A   Clear
12:55 AM 60.8 °F 44.6 °F 55% 30.14 in 10.0 mi ESE 5.8 mph - N/A   Clear
1:15 AM 59.0 °F 44.6 °F 59% 30.14 in 10.0 mi ESE 3.5 mph - N/A   Clear
1:35 AM 59.0 °F 44.6 °F 59% 30.14 in 10.0 mi Calm Calm - N/A   Clear
1:55 AM 55.4 °F 44.6 °F 67% 30.14 in 10.0 mi Calm Calm - N/A   Clear
2:15 AM 55.4 °F 44.6 °F 67% 30.14 in 10.0 mi Calm Calm - N/A   Clear
2:35 AM 53.6 °F 44.6 °F 72% 30.14 in 10.0 mi Calm Calm - N/A   Clear
2:55 AM 55.4 °F 44.6 °F 67% 30.14 in 10.0 mi Calm Calm - N/A   Clear
3:15 AM 53.6 °F 44.6 °F 72% 30.14 in 10.0 mi Calm Calm - N/A   Clear
3:35 AM 53.6 °F 42.8 °F 67% 30.14 in 10.0 mi Calm Calm - N/A   Clear
3:55 AM 55.4 °F 42.8 °F 63% 30.14 in 10.0 mi Calm Calm - N/A   Clear
4:15 AM 53.6 °F 42.8 °F 67% 30.14 in 10.0 mi Calm Calm - N/A   Clear
4:35 AM 55.4 °F 42.8 °F 63% 30.14 in 10.0 mi Calm Calm - N/A   Clear
4:55 AM 53.6 °F 42.8 °F 67% 30.14 in 10.0 mi Calm Calm - N/A   Clear
5:15 AM 53.6 °F 41.0 °F 62% 30.14 in 10.0 mi Calm Calm - N/A   Clear
5:35 AM 53.6 °F 41.0 °F 62% 30.14 in 10.0 mi Calm Calm - N/A   Clear
5:55 AM 50.0 °F 42.8 °F 76% 30.15 in 10.0 mi Calm Calm - N/A   Clear
6:15 AM 51.8 °F 42.8 °F 71% 30.15 in 10.0 mi Calm Calm - N/A   Clear
6:35 AM 51.8 °F 42.8 °F 71% 30.16 in 10.0 mi SW 3.5 mph - N/A   Clear
6:55 AM 55.4 °F 44.6 °F 67% 30.17 in 10.0 mi Calm Calm - N/A   Clear
7:15 AM 57.2 °F 44.6 °F 63% 30.17 in 10.0 mi East 3.5 mph - N/A   Clear
7:55 AM 60.8 °F 46.4 °F 59% 30.18 in 10.0 mi West 4.6 mph - N/A   Clear
8:15 AM 59.0 °F 44.6 °F 59% 30.18 in 10.0 mi West 3.5 mph - N/A   Clear
8:35 AM 60.8 °F 44.6 °F 55% 30.18 in 10.0 mi Calm Calm - N/A   Clear
8:55 AM 62.6 °F 44.6 °F 52% 30.18 in 10.0 mi East 3.5 mph - N/A   Clear
9:15 AM 64.4 °F 44.6 °F 49% 30.19 in 10.0 mi ESE 3.5 mph - N/A   Clear
9:35 AM 68.0 °F 42.8 °F 40% 30.19 in 10.0 mi SE 4.6 mph - N/A   Clear
9:55 AM 69.8 °F 37.4 °F 31% 30.19 in 10.0 mi Calm Calm - N/A   Clear
10:15 AM 69.8 °F 37.4 °F 31% 30.19 in 7.0 mi Calm Calm - N/A   Clear
10:35 AM 73.4 °F 42.8 °F 33% 30.19 in 10.0 mi NW 3.5 mph - N/A   Clear
10:55 AM 73.4 °F 39.2 °F 29% 30.19 in 10.0 mi Calm Calm - N/A   Clear
11:15 AM 73.4 °F 41.0 °F 31% 30.19 in 10.0 mi Calm Calm - N/A   Clear
11:35 AM 77.0 °F 41.0 °F 28% 30.19 in 10.0 mi Calm Calm - N/A   Clear
11:55 AM 80.6 °F 39.2 °F 23% 30.18 in 10.0 mi Calm Calm - N/A   Clear
12:15 PM 82.4 °F 41.0 °F 23% 30.18 in 10.0 mi NNW 4.6 mph - N/A   Clear
12:35 PM 86.0 °F 41.0 °F 20% 30.18 in 10.0 mi West 6.9 mph - N/A   Clear
12:55 PM 89.6 °F 35.6 °F 15% 30.17 in 10.0 mi WSW 12.7 mph 19.6 mph N/A   Clear
1:15 PM 89.6 °F 33.8 °F 14% 30.17 in 10.0 mi West 11.5 mph 17.3 mph N/A Thunderstorm Clear
1:35 PM 89.6 °F 35.6 °F 15% 30.16 in 10.0 mi West 10.4 mph - N/A   Clear
1:55 PM 87.8 °F 33.8 °F 15% 30.15 in 10.0 mi WSW 13.8 mph - N/A   Clear
2:15 PM 86.0 °F 33.8 °F 15% 30.15 in 10.0 mi WSW 11.5 mph - N/A   Clear
2:35 PM 89.6 °F 33.8 °F 14% 30.14 in 10.0 mi WSW 11.5 mph - N/A   Clear
2:55 PM 91.4 °F 32.0 °F 12% 30.13 in 10.0 mi West 10.4 mph - N/A   Clear
3:15 PM 91.4 °F 32.0 °F 12% 30.13 in 10.0 mi WSW 5.8 mph - N/A   Clear
3:35 PM 91.4 °F 32.0 °F 12% 30.12 in 10.0 mi West 5.8 mph - N/A   Clear
3:55 PM 93.2 °F 32.0 °F 11% 30.11 in 10.0 mi West 10.4 mph - N/A   Clear
4:15 PM 93.2 °F 32.0 °F 11% 30.10 in 10.0 mi WSW 8.1 mph - N/A   Clear
4:35 PM 91.4 °F 32.0 °F 12% 30.10 in 10.0 mi West 8.1 mph - N/A   Clear
4:55 PM 95.0 °F 32.0 °F 11% 30.10 in 10.0 mi WSW 10.4 mph 17.3 mph N/A   Clear
5:15 PM 91.4 °F 32.0 °F 12% 30.09 in 10.0 mi WSW 15.0 mph - N/A   Clear
5:35 PM 86.0 °F 32.0 °F 14% 30.09 in 10.0 mi SW 8.1 mph - N/A   Clear
5:55 PM 86.0 °F 35.6 °F 17% 30.09 in 10.0 mi WSW 9.2 mph - N/A   Clear
6:15 PM 82.4 °F 35.6 °F 19% 30.10 in 10.0 mi West 15.0 mph 20.7 mph N/A   Clear
6:35 PM 82.4 °F 33.8 °F 17% 30.10 in 10.0 mi West 8.1 mph - N/A   Clear
6:55 PM 80.6 °F 33.8 °F 18% 30.12 in 10.0 mi West 24.2 mph 35.7 mph N/A   Clear
7:15 PM 77.0 °F 35.6 °F 22% 30.13 in 10.0 mi WNW 17.3 mph 33.4 mph N/A   Clear
7:35 PM 78.8 °F 33.8 °F 20% 30.13 in 10.0 mi West 12.7 mph 18.4 mph N/A   Clear
7:55 PM 75.2 °F 41.0 °F 29% 30.13 in 10.0 mi East 8.1 mph - N/A   Clear
8:15 PM 73.4 °F 41.0 °F 31% 30.13 in 10.0 mi ESE 9.2 mph - N/A   Clear
8:35 PM 73.4 °F 39.2 °F 29% 30.13 in 10.0 mi East 9.2 mph - N/A   Clear
8:55 PM 73.4 °F 37.4 °F 27% 30.13 in 10.0 mi East 4.6 mph - N/A   Clear
9:15 PM 73.4 °F 41.0 °F 31% 30.14 in 10.0 mi NNW 5.8 mph - N/A   Clear
9:35 PM 71.6 °F 39.2 °F 31% 30.15 in 10.0 mi Calm Calm - N/A   Clear
9:55 PM 66.2 °F 46.4 °F 49% 30.15 in 10.0 mi South 3.5 mph - N/A   Clear
10:15 PM 64.4 °F 46.4 °F 52% 30.16 in 10.0 mi Calm Calm - N/A   Clear
10:35 PM 64.4 °F 46.4 °F 52% 30.16 in 10.0 mi SE 4.6 mph - N/A   Clear
10:55 PM 64.4 °F 44.6 °F 49% 30.17 in 10.0 mi WSW 5.8 mph - N/A   Clear
11:15 PM 68.0 °F 42.8 °F 40% 30.17 in 10.0 mi Calm Calm - N/A   Clear
11:35 PM 60.8 °F 48.2 °F 63% 30.18 in 10.0 mi SE 3.5 mph - N/A   Clear
11:55 PM 64.4 °F 41.0 °F 42% 30.18 in 10.0 mi ESE 4.6 mph - N/A   Clear